Terminal Aerodrome Forecast
Issued by NWS Cleveland, OH

Home | Current Version | Previous Version | Graphics & Text | Print | Product List | Glossary Off
Versions: 1 2 3 4 5 6 7 8 9 10 11 12 13 14 15 16 17 18 19 20 21

105
FTUS41 KCLE 130945 AAA
TAFCAK
TAF AMD
KCAK 130945Z 1310/1406 30012G20KT P6SM BKN035
      TEMPO 1310/1314 3SM -SHSN OVC025
     FM131400 30012G20KT 6SM -SHSN OVC025
     FM132200 30012KT P6SM BKN035=

USA.gov is the U.S. government's official web portal to all federal, state and local government web resources and services.